ROMMA est une association bénévole à but non lucratif. Votre soutien est indispensable : ADHERER à ROMMA ou FAIRE un DON

Chamrousse - (38, Isère)

Massif de Belledonne (1800 m)   Longitude: 05° 52' 28" E   Latitude: 45° 06' 28" N Station partenaire n°3
 

Détail journalier du     <<     >>

Température Precipitation Humidité Pression Vent Dir Rafale Dir. rafale
Heure (°C) (mm) (%) (hPa) (km/h) (km/h)
01:00 4.10.884101315ESE32E
02:00 4.7078101212ESE21ESE
03:00 4.807710126ESE15SE
04:00 4.8077101111NNE16N
05:00 4.8077101212N16N
06:00 5.1074101212NE18NNE
07:00 5.3072101213NNE18NNE
08:00 6.1070101310NNE16NNE
09:00 6.607110146NNE15NNE
10:00 7.107210133NNO24ESE
11:00 6.008510138ONO21O
12:00 6.808810138NO18ONO
13:00 7.308710139O24ONO
14:00 7.607710129NO23NO
15:00 8.4069101210ONO26ONO
16:00 9.606410119NO24ONO
17:00 10.206110115O21ONO
18:00 9.606610114N15NNE
19:00 8.806710101N11N
20:00 7.606510113N11N
21:00 7.504610115N16ESE
22:00 7.5033101218E37E
23:00 7.3034101221E40E
minuit 6.8036101213ENE39E

Graphique du 12-05-2008

 

Serveur OMMA